FGBT

Bata Airport

Equatorial Guinea
METAR FGBT 231600Z 13007KT 090V160 7000 -TSRA BKN008 FEW020CB 24/24 Q1007
Observed Flight Rules
Feb-23 @ 16:00 UTC (34 minutes ago) Instrument Flight Rules
Wind Visibility Clouds Conditions
130° at 7 knots 7,001 meters
  • Broken at 800' AGL
  • Few at 2,000' AGL
  • Light Thunderstorm
  • Light Rain
Temperatures Readings
Current 24°C / 75°F
Dewpoint 24°C / 75°F
Humidity 100%
Altimeter 29.73" Hg
Pressure 1007 hPa
Elevation 8
METAR FGBT 231600Z 13007KT 090V160 7000 -TSRA BKN008 FEW020CB 24/24 Q1007
Observed Flight Rules
Feb-23 @ 16:00 UTC
(34 minutes ago)
IFR
Wind Visibility
130° at 7 knots 7,001 meters
Clouds
  • Broken at 800' AGL
  • Few at 2,000' AGL
Conditions
  • Light Thunderstorm
  • Light Rain
Temperature Dewpoint
24°C / 75°F 24°C / 75°F
Humidity Altimeter Pressure
100% 29.73" Hg 1007 hPa